sensor_id;sensor_type;location;lat;lon;timestamp;P1;durP1;ratioP1;P2;durP2;ratioP2
76935;SDS011;65881;52.438;16.744;2023-01-19T00:01:24;41.90;;;22.48;;
76935;SDS011;65881;52.438;16.744;2023-01-19T00:03:50;37.33;;;21.02;;
76935;SDS011;65881;52.438;16.744;2023-01-19T00:06:19;40.72;;;19.70;;
76935;SDS011;65881;52.438;16.744;2023-01-19T00:08:45;43.13;;;22.95;;
76935;SDS011;65881;52.438;16.744;2023-01-19T00:11:22;39.70;;;21.92;;
76935;SDS011;65881;52.438;16.744;2023-01-19T00:13:57;44.08;;;23.42;;
76935;SDS011;65881;52.438;16.744;2023-01-19T00:16:23;34.35;;;21.38;;
76935;SDS011;65881;52.438;16.744;2023-01-19T00:19:04;43.22;;;21.80;;
76935;SDS011;65881;52.438;16.744;2023-01-19T00:21:35;42.40;;;22.10;;
76935;SDS011;65881;52.438;16.744;2023-01-19T00:24:01;40.47;;;21.60;;
76935;SDS011;65881;52.438;16.744;2023-01-19T00:26:27;39.10;;;21.05;;
76935;SDS011;65881;52.438;16.744;2023-01-19T00:28:53;41.70;;;21.05;;
76935;SDS011;65881;52.438;16.744;2023-01-19T00:31:30;38.30;;;21.92;;
76935;SDS011;65881;52.438;16.744;2023-01-19T00:33:58;36.55;;;21.02;;
76935;SDS011;65881;52.438;16.744;2023-01-19T00:36:39;42.63;;;21.70;;
76935;SDS011;65881;52.438;16.744;2023-01-19T00:39:26;35.90;;;20.08;;
76935;SDS011;65881;52.438;16.744;2023-01-19T00:41:56;37.90;;;21.50;;
76935;SDS011;65881;52.438;16.744;2023-01-19T00:44:50;38.65;;;21.13;;
76935;SDS011;65881;52.438;16.744;2023-01-19T00:47:22;37.20;;;20.52;;
76935;SDS011;65881;52.438;16.744;2023-01-19T00:49:51;46.95;;;20.67;;
76935;SDS011;65881;52.438;16.744;2023-01-19T00:52:28;40.30;;;21.73;;
76935;SDS011;65881;52.438;16.744;2023-01-19T00:54:53;38.63;;;20.10;;
76935;SDS011;65881;52.438;16.744;2023-01-19T00:57:19;40.90;;;21.63;;
76935;SDS011;65881;52.438;16.744;2023-01-19T00:59:54;39.72;;;21.25;;
76935;SDS011;65881;52.438;16.744;2023-01-19T01:05:20;36.15;;;22.90;;
76935;SDS011;65881;52.438;16.744;2023-01-19T01:07:49;39.08;;;24.02;;
76935;SDS011;65881;52.438;16.744;2023-01-19T01:10:37;41.28;;;22.45;;
76935;SDS011;65881;52.438;16.744;2023-01-19T01:16:34;42.53;;;23.50;;
76935;SDS011;65881;52.438;16.744;2023-01-19T01:19:00;39.75;;;22.45;;
76935;SDS011;65881;52.438;16.744;2023-01-19T01:21:39;41.33;;;21.90;;
76935;SDS011;65881;52.438;16.744;2023-01-19T01:24:23;41.00;;;20.35;;
76935;SDS011;65881;52.438;16.744;2023-01-19T01:26:55;35.95;;;21.75;;
76935;SDS011;65881;52.438;16.744;2023-01-19T01:29:27;47.40;;;22.05;;
76935;SDS011;65881;52.438;16.744;2023-01-19T01:31:58;37.63;;;20.60;;
76935;SDS011;65881;52.438;16.744;2023-01-19T01:34:33;35.67;;;21.33;;
76935;SDS011;65881;52.438;16.744;2023-01-19T01:37:08;30.73;;;17.92;;
76935;SDS011;65881;52.438;16.744;2023-01-19T01:39:37;34.58;;;18.83;;
76935;SDS011;65881;52.438;16.744;2023-01-19T01:42:13;34.63;;;19.33;;
76935;SDS011;65881;52.438;16.744;2023-01-19T01:48:01;31.13;;;17.77;;
76935;SDS011;65881;52.438;16.744;2023-01-19T01:50:34;33.03;;;17.20;;
76935;SDS011;65881;52.438;16.744;2023-01-19T01:53:35;34.97;;;17.38;;
76935;SDS011;65881;52.438;16.744;2023-01-19T01:56:03;26.08;;;15.20;;
76935;SDS011;65881;52.438;16.744;2023-01-19T02:02:20;29.17;;;18.15;;
76935;SDS011;65881;52.438;16.744;2023-01-19T02:11:55;31.50;;;16.77;;
76935;SDS011;65881;52.438;16.744;2023-01-19T02:14:39;36.33;;;16.27;;
76935;SDS011;65881;52.438;16.744;2023-01-19T02:17:20;27.77;;;16.50;;
76935;SDS011;65881;52.438;16.744;2023-01-19T02:19:55;30.83;;;15.90;;
76935;SDS011;65881;52.438;16.744;2023-01-19T02:23:06;28.67;;;15.60;;
76935;SDS011;65881;52.438;16.744;2023-01-19T02:25:25;30.63;;;16.27;;
76935;SDS011;65881;52.438;16.744;2023-01-19T02:28:06;27.02;;;16.00;;
76935;SDS011;65881;52.438;16.744;2023-01-19T02:30:32;28.25;;;16.90;;
76935;SDS011;65881;52.438;16.744;2023-01-19T02:45:09;24.58;;;13.40;;
76935;SDS011;65881;52.438;16.744;2023-01-19T02:47:52;26.85;;;15.98;;
76935;SDS011;65881;52.438;16.744;2023-01-19T02:50:49;36.13;;;17.25;;
76935;SDS011;65881;52.438;16.744;2023-01-19T03:03:24;30.52;;;14.27;;
76935;SDS011;65881;52.438;16.744;2023-01-19T03:08:52;24.33;;;15.10;;
76935;SDS011;65881;52.438;16.744;2023-01-19T03:11:51;24.90;;;14.98;;
76935;SDS011;65881;52.438;16.744;2023-01-19T03:14:49;27.48;;;15.27;;
76935;SDS011;65881;52.438;16.744;2023-01-19T03:17:47;29.60;;;16.48;;
76935;SDS011;65881;52.438;16.744;2023-01-19T03:20:15;28.08;;;15.70;;
76935;SDS011;65881;52.438;16.744;2023-01-19T03:23:10;28.88;;;16.30;;
76935;SDS011;65881;52.438;16.744;2023-01-19T03:25:49;30.42;;;15.13;;
76935;SDS011;65881;52.438;16.744;2023-01-19T03:28:25;32.75;;;15.05;;
76935;SDS011;65881;52.438;16.744;2023-01-19T03:31:00;29.25;;;15.43;;
76935;SDS011;65881;52.438;16.744;2023-01-19T03:33:44;23.95;;;13.82;;
76935;SDS011;65881;52.438;16.744;2023-01-19T03:36:31;24.58;;;16.02;;
76935;SDS011;65881;52.438;16.744;2023-01-19T03:39:01;29.25;;;15.48;;
76935;SDS011;65881;52.438;16.744;2023-01-19T03:41:29;27.27;;;14.85;;
76935;SDS011;65881;52.438;16.744;2023-01-19T03:43:59;26.92;;;15.90;;
76935;SDS011;65881;52.438;16.744;2023-01-19T03:46:26;26.48;;;15.60;;
76935;SDS011;65881;52.438;16.744;2023-01-19T03:48:58;27.45;;;14.18;;
76935;SDS011;65881;52.438;16.744;2023-01-19T03:51:24;28.90;;;15.23;;
76935;SDS011;65881;52.438;16.744;2023-01-19T03:54:06;27.90;;;15.55;;
76935;SDS011;65881;52.438;16.744;2023-01-19T03:56:48;29.38;;;15.70;;
76935;SDS011;65881;52.438;16.744;2023-01-19T03:59:25;26.00;;;15.48;;
76935;SDS011;65881;52.438;16.744;2023-01-19T04:01:50;31.90;;;16.75;;
76935;SDS011;65881;52.438;16.744;2023-01-19T04:04:16;32.40;;;14.90;;
76935;SDS011;65881;52.438;16.744;2023-01-19T04:06:49;30.55;;;17.08;;
76935;SDS011;65881;52.438;16.744;2023-01-19T04:09:23;31.08;;;15.20;;
76935;SDS011;65881;52.438;16.744;2023-01-19T04:12:09;31.90;;;17.00;;
76935;SDS011;65881;52.438;16.744;2023-01-19T04:14:34;29.70;;;16.70;;
76935;SDS011;65881;52.438;16.744;2023-01-19T04:17:06;35.63;;;16.83;;
76935;SDS011;65881;52.438;16.744;2023-01-19T04:19:39;32.65;;;15.55;;
76935;SDS011;65881;52.438;16.744;2023-01-19T04:22:17;30.77;;;16.98;;
76935;SDS011;65881;52.438;16.744;2023-01-19T04:24:51;36.53;;;16.83;;
76935;SDS011;65881;52.438;16.744;2023-01-19T04:27:32;31.15;;;16.23;;
76935;SDS011;65881;52.438;16.744;2023-01-19T04:30:12;32.33;;;16.13;;
76935;SDS011;65881;52.438;16.744;2023-01-19T04:32:38;26.10;;;14.82;;
76935;SDS011;65881;52.438;16.744;2023-01-19T04:35:04;25.38;;;15.13;;
76935;SDS011;65881;52.438;16.744;2023-01-19T04:37:33;27.08;;;14.77;;
76935;SDS011;65881;52.438;16.744;2023-01-19T04:40:08;32.78;;;16.63;;
76935;SDS011;65881;52.438;16.744;2023-01-19T04:42:35;33.70;;;15.55;;
76935;SDS011;65881;52.438;16.744;2023-01-19T04:45:13;34.35;;;15.88;;
76935;SDS011;65881;52.438;16.744;2023-01-19T04:47:42;34.55;;;16.15;;
76935;SDS011;65881;52.438;16.744;2023-01-19T04:50:20;34.90;;;16.50;;
76935;SDS011;65881;52.438;16.744;2023-01-19T04:52:57;31.60;;;16.00;;
76935;SDS011;65881;52.438;16.744;2023-01-19T04:55:38;32.38;;;16.88;;
76935;SDS011;65881;52.438;16.744;2023-01-19T04:58:10;32.13;;;15.73;;
76935;SDS011;65881;52.438;16.744;2023-01-19T05:00:42;32.03;;;15.35;;
76935;SDS011;65881;52.438;16.744;2023-01-19T05:03:07;40.63;;;17.02;;
76935;SDS011;65881;52.438;16.744;2023-01-19T05:05:48;34.20;;;16.20;;
76935;SDS011;65881;52.438;16.744;2023-01-19T05:08:14;35.90;;;17.02;;
76935;SDS011;65881;52.438;16.744;2023-01-19T05:10:40;31.92;;;16.27;;
76935;SDS011;65881;52.438;16.744;2023-01-19T05:13:17;31.30;;;15.98;;
76935;SDS011;65881;52.438;16.744;2023-01-19T05:15:43;33.13;;;16.13;;
76935;SDS011;65881;52.438;16.744;2023-01-19T05:18:09;36.10;;;16.58;;
76935;SDS011;65881;52.438;16.744;2023-01-19T05:20:43;31.83;;;15.02;;
76935;SDS011;65881;52.438;16.744;2023-01-19T05:23:15;30.90;;;14.52;;
76935;SDS011;65881;52.438;16.744;2023-01-19T05:25:41;30.15;;;15.32;;
76935;SDS011;65881;52.438;16.744;2023-01-19T05:28:40;25.73;;;13.07;;
76935;SDS011;65881;52.438;16.744;2023-01-19T05:31:18;27.35;;;13.75;;
76935;SDS011;65881;52.438;16.744;2023-01-19T05:34:03;27.85;;;14.27;;
76935;SDS011;65881;52.438;16.744;2023-01-19T05:36:44;26.58;;;13.65;;
76935;SDS011;65881;52.438;16.744;2023-01-19T05:39:10;27.45;;;12.77;;
76935;SDS011;65881;52.438;16.744;2023-01-19T05:41:48;27.23;;;12.52;;
76935;SDS011;65881;52.438;16.744;2023-01-19T05:44:16;23.63;;;13.15;;
76935;SDS011;65881;52.438;16.744;2023-01-19T05:49:20;26.85;;;11.93;;
76935;SDS011;65881;52.438;16.744;2023-01-19T05:51:46;27.73;;;12.95;;
76935;SDS011;65881;52.438;16.744;2023-01-19T05:54:18;21.88;;;12.48;;
76935;SDS011;65881;52.438;16.744;2023-01-19T05:56:44;25.45;;;11.77;;
76935;SDS011;65881;52.438;16.744;2023-01-19T05:59:09;26.02;;;11.40;;
76935;SDS011;65881;52.438;16.744;2023-01-19T06:01:44;27.60;;;12.85;;
76935;SDS011;65881;52.438;16.744;2023-01-19T06:04:13;24.02;;;11.65;;
76935;SDS011;65881;52.438;16.744;2023-01-19T06:06:40;24.90;;;12.63;;
76935;SDS011;65881;52.438;16.744;2023-01-19T06:09:08;27.23;;;13.68;;
76935;SDS011;65881;52.438;16.744;2023-01-19T06:11:40;30.60;;;12.82;;
76935;SDS011;65881;52.438;16.744;2023-01-19T06:17:17;27.38;;;14.13;;
76935;SDS011;65881;52.438;16.744;2023-01-19T06:24:54;33.47;;;13.73;;
76935;SDS011;65881;52.438;16.744;2023-01-19T06:27:29;30.95;;;13.75;;
76935;SDS011;65881;52.438;16.744;2023-01-19T06:29:54;34.25;;;14.18;;
76935;SDS011;65881;52.438;16.744;2023-01-19T06:32:24;35.25;;;13.50;;
76935;SDS011;65881;52.438;16.744;2023-01-19T06:34:52;31.63;;;13.45;;
76935;SDS011;65881;52.438;16.744;2023-01-19T06:37:19;38.08;;;15.02;;
76935;SDS011;65881;52.438;16.744;2023-01-19T06:40:00;34.97;;;14.13;;
76935;SDS011;65881;52.438;16.744;2023-01-19T06:42:33;40.92;;;14.70;;
76935;SDS011;65881;52.438;16.744;2023-01-19T06:45:18;43.17;;;13.88;;
76935;SDS011;65881;52.438;16.744;2023-01-19T06:48:19;30.27;;;12.07;;
76935;SDS011;65881;52.438;16.744;2023-01-19T06:51:04;28.45;;;13.00;;
76935;SDS011;65881;52.438;16.744;2023-01-19T06:53:58;34.45;;;13.85;;
76935;SDS011;65881;52.438;16.744;2023-01-19T06:56:42;24.80;;;12.27;;
76935;SDS011;65881;52.438;16.744;2023-01-19T06:59:23;24.58;;;11.80;;
76935;SDS011;65881;52.438;16.744;2023-01-19T07:01:49;27.15;;;12.30;;
76935;SDS011;65881;52.438;16.744;2023-01-19T07:04:30;31.15;;;12.95;;
76935;SDS011;65881;52.438;16.744;2023-01-19T07:09:45;23.65;;;11.07;;
76935;SDS011;65881;52.438;16.744;2023-01-19T07:12:36;32.40;;;13.07;;
76935;SDS011;65881;52.438;16.744;2023-01-19T07:15:18;29.88;;;12.98;;
76935;SDS011;65881;52.438;16.744;2023-01-19T07:17:46;31.85;;;13.48;;
76935;SDS011;65881;52.438;16.744;2023-01-19T07:20:12;33.65;;;13.27;;
76935;SDS011;65881;52.438;16.744;2023-01-19T07:22:39;27.80;;;12.68;;
76935;SDS011;65881;52.438;16.744;2023-01-19T07:25:07;31.48;;;13.73;;
76935;SDS011;65881;52.438;16.744;2023-01-19T07:27:33;35.40;;;12.45;;
76935;SDS011;65881;52.438;16.744;2023-01-19T07:30:11;30.65;;;15.15;;
76935;SDS011;65881;52.438;16.744;2023-01-19T07:32:53;34.22;;;14.07;;
76935;SDS011;65881;52.438;16.744;2023-01-19T07:35:24;34.58;;;14.77;;
76935;SDS011;65881;52.438;16.744;2023-01-19T07:40:48;29.27;;;11.27;;
76935;SDS011;65881;52.438;16.744;2023-01-19T07:43:17;26.90;;;11.05;;
76935;SDS011;65881;52.438;16.744;2023-01-19T07:46:01;25.70;;;11.02;;
76935;SDS011;65881;52.438;16.744;2023-01-19T07:48:31;29.92;;;13.75;;
76935;SDS011;65881;52.438;16.744;2023-01-19T07:51:06;32.67;;;13.57;;
76935;SDS011;65881;52.438;16.744;2023-01-19T07:53:37;28.98;;;11.88;;
76935;SDS011;65881;52.438;16.744;2023-01-19T07:56:09;28.38;;;12.48;;
76935;SDS011;65881;52.438;16.744;2023-01-19T07:58:47;29.33;;;13.02;;
76935;SDS011;65881;52.438;16.744;2023-01-19T08:01:19;31.70;;;12.05;;
76935;SDS011;65881;52.438;16.744;2023-01-19T08:03:51;28.73;;;12.00;;
76935;SDS011;65881;52.438;16.744;2023-01-19T08:06:20;26.75;;;13.63;;
76935;SDS011;65881;52.438;16.744;2023-01-19T08:12:39;36.60;;;14.30;;
76935;SDS011;65881;52.438;16.744;2023-01-19T08:15:39;50.35;;;18.33;;
76935;SDS011;65881;52.438;16.744;2023-01-19T08:18:05;34.63;;;14.73;;
76935;SDS011;65881;52.438;16.744;2023-01-19T08:20:34;40.58;;;15.95;;
76935;SDS011;65881;52.438;16.744;2023-01-19T08:22:59;31.83;;;14.10;;
76935;SDS011;65881;52.438;16.744;2023-01-19T08:25:32;33.28;;;14.15;;
76935;SDS011;65881;52.438;16.744;2023-01-19T08:28:13;33.58;;;13.95;;
76935;SDS011;65881;52.438;16.744;2023-01-19T08:30:58;31.35;;;12.88;;
76935;SDS011;65881;52.438;16.744;2023-01-19T08:33:37;32.90;;;13.40;;
76935;SDS011;65881;52.438;16.744;2023-01-19T08:36:15;32.47;;;14.38;;
76935;SDS011;65881;52.438;16.744;2023-01-19T08:38:43;31.90;;;14.70;;
76935;SDS011;65881;52.438;16.744;2023-01-19T08:41:10;33.72;;;15.35;;
76935;SDS011;65881;52.438;16.744;2023-01-19T08:43:36;33.67;;;13.90;;
76935;SDS011;65881;52.438;16.744;2023-01-19T08:46:02;27.48;;;12.98;;
76935;SDS011;65881;52.438;16.744;2023-01-19T08:48:28;27.65;;;14.65;;
76935;SDS011;65881;52.438;16.744;2023-01-19T08:50:55;31.25;;;16.38;;
76935;SDS011;65881;52.438;16.744;2023-01-19T08:53:30;28.13;;;12.80;;
76935;SDS011;65881;52.438;16.744;2023-01-19T08:55:56;24.00;;;12.65;;
76935;SDS011;65881;52.438;16.744;2023-01-19T08:58:25;23.08;;;13.05;;
76935;SDS011;65881;52.438;16.744;2023-01-19T09:00:58;22.70;;;12.57;;
76935;SDS011;65881;52.438;16.744;2023-01-19T09:03:42;20.30;;;11.93;;
76935;SDS011;65881;52.438;16.744;2023-01-19T09:06:10;19.40;;;12.20;;
76935;SDS011;65881;52.438;16.744;2023-01-19T09:08:38;24.30;;;11.75;;
76935;SDS011;65881;52.438;16.744;2023-01-19T09:11:20;24.42;;;13.30;;
76935;SDS011;65881;52.438;16.744;2023-01-19T09:13:52;20.50;;;11.57;;
76935;SDS011;65881;52.438;16.744;2023-01-19T09:16:38;29.13;;;14.20;;
76935;SDS011;65881;52.438;16.744;2023-01-19T09:19:03;26.67;;;12.15;;
76935;SDS011;65881;52.438;16.744;2023-01-19T09:21:32;29.50;;;15.18;;
76935;SDS011;65881;52.438;16.744;2023-01-19T09:24:01;22.02;;;12.18;;
76935;SDS011;65881;52.438;16.744;2023-01-19T09:26:27;23.73;;;13.18;;
76935;SDS011;65881;52.438;16.744;2023-01-19T09:29:10;26.27;;;13.05;;
76935;SDS011;65881;52.438;16.744;2023-01-19T09:31:48;29.13;;;13.90;;
76935;SDS011;65881;52.438;16.744;2023-01-19T09:34:33;29.63;;;15.77;;
76935;SDS011;65881;52.438;16.744;2023-01-19T09:36:58;20.38;;;12.43;;
76935;SDS011;65881;52.438;16.744;2023-01-19T09:39:24;27.45;;;14.05;;
76935;SDS011;65881;52.438;16.744;2023-01-19T09:44:46;25.60;;;15.10;;
76935;SDS011;65881;52.438;16.744;2023-01-19T09:47:13;25.15;;;12.45;;
76935;SDS011;65881;52.438;16.744;2023-01-19T09:49:56;24.50;;;12.63;;
76935;SDS011;65881;52.438;16.744;2023-01-19T09:52:27;24.50;;;11.38;;
76935;SDS011;65881;52.438;16.744;2023-01-19T09:55:29;31.73;;;14.02;;
76935;SDS011;65881;52.438;16.744;2023-01-19T09:57:54;29.00;;;14.77;;
76935;SDS011;65881;52.438;16.744;2023-01-19T10:00:21;26.05;;;15.02;;
76935;SDS011;65881;52.438;16.744;2023-01-19T10:03:09;28.35;;;13.93;;
76935;SDS011;65881;52.438;16.744;2023-01-19T10:05:54;29.77;;;15.35;;
76935;SDS011;65881;52.438;16.744;2023-01-19T10:08:45;36.55;;;16.10;;
76935;SDS011;65881;52.438;16.744;2023-01-19T10:32:35;30.73;;;15.27;;
76935;SDS011;65881;52.438;16.744;2023-01-19T10:35:13;30.00;;;15.90;;
76935;SDS011;65881;52.438;16.744;2023-01-19T10:37:57;32.65;;;16.73;;
76935;SDS011;65881;52.438;16.744;2023-01-19T10:40:31;32.97;;;15.93;;
76935;SDS011;65881;52.438;16.744;2023-01-19T10:46:00;36.03;;;17.65;;
76935;SDS011;65881;52.438;16.744;2023-01-19T10:48:42;37.90;;;18.83;;
76935;SDS011;65881;52.438;16.744;2023-01-19T10:51:09;34.00;;;18.63;;
76935;SDS011;65881;52.438;16.744;2023-01-19T10:53:35;34.97;;;20.25;;
76935;SDS011;65881;52.438;16.744;2023-01-19T10:56:15;34.05;;;18.55;;
76935;SDS011;65881;52.438;16.744;2023-01-19T10:58:46;32.00;;;18.02;;
76935;SDS011;65881;52.438;16.744;2023-01-19T11:01:31;31.17;;;17.95;;
76935;SDS011;65881;52.438;16.744;2023-01-19T11:04:17;36.97;;;19.10;;
76935;SDS011;65881;52.438;16.744;2023-01-19T11:07:33;35.92;;;21.35;;
76935;SDS011;65881;52.438;16.744;2023-01-19T11:15:58;31.90;;;18.48;;
76935;SDS011;65881;52.438;16.744;2023-01-19T11:22:47;32.83;;;16.95;;
76935;SDS011;65881;52.438;16.744;2023-01-19T11:26:04;29.17;;;15.57;;
76935;SDS011;65881;52.438;16.744;2023-01-19T11:28:31;28.60;;;17.65;;
76935;SDS011;65881;52.438;16.744;2023-01-19T11:31:18;34.35;;;16.08;;
76935;SDS011;65881;52.438;16.744;2023-01-19T11:37:03;28.17;;;16.05;;
76935;SDS011;65881;52.438;16.744;2023-01-19T11:39:58;28.88;;;17.70;;
76935;SDS011;65881;52.438;16.744;2023-01-19T11:42:44;28.75;;;16.02;;
76935;SDS011;65881;52.438;16.744;2023-01-19T11:45:13;21.35;;;14.48;;
76935;SDS011;65881;52.438;16.744;2023-01-19T11:47:46;27.70;;;15.68;;
76935;SDS011;65881;52.438;16.744;2023-01-19T11:50:41;28.05;;;15.55;;
76935;SDS011;65881;52.438;16.744;2023-01-19T11:56:05;31.15;;;17.33;;
76935;SDS011;65881;52.438;16.744;2023-01-19T11:58:38;29.08;;;17.05;;
76935;SDS011;65881;52.438;16.744;2023-01-19T12:04:29;29.10;;;16.30;;
76935;SDS011;65881;52.438;16.744;2023-01-19T12:07:12;32.75;;;17.33;;
76935;SDS011;65881;52.438;16.744;2023-01-19T12:09:50;22.17;;;15.48;;
76935;SDS011;65881;52.438;16.744;2023-01-19T12:12:27;24.13;;;15.23;;
76935;SDS011;65881;52.438;16.744;2023-01-19T12:14:59;30.48;;;16.98;;
76935;SDS011;65881;52.438;16.744;2023-01-19T12:17:52;25.52;;;14.93;;
76935;SDS011;65881;52.438;16.744;2023-01-19T12:20:37;24.73;;;15.80;;
76935;SDS011;65881;52.438;16.744;2023-01-19T12:29:28;25.15;;;15.68;;
76935;SDS011;65881;52.438;16.744;2023-01-19T12:40:18;27.35;;;16.42;;
76935;SDS011;65881;52.438;16.744;2023-01-19T12:42:54;24.85;;;14.98;;
76935;SDS011;65881;52.438;16.744;2023-01-19T12:45:41;25.35;;;16.58;;
76935;SDS011;65881;52.438;16.744;2023-01-19T12:48:22;30.10;;;16.08;;
76935;SDS011;65881;52.438;16.744;2023-01-19T12:50:50;27.92;;;17.08;;
76935;SDS011;65881;52.438;16.744;2023-01-19T12:53:25;31.20;;;17.70;;
76935;SDS011;65881;52.438;16.744;2023-01-19T12:55:57;30.63;;;17.48;;
76935;SDS011;65881;52.438;16.744;2023-01-19T12:58:46;30.50;;;17.65;;
76935;SDS011;65881;52.438;16.744;2023-01-19T13:01:14;32.67;;;17.20;;
76935;SDS011;65881;52.438;16.744;2023-01-19T13:03:56;33.60;;;17.27;;
76935;SDS011;65881;52.438;16.744;2023-01-19T13:09:29;27.38;;;15.95;;
76935;SDS011;65881;52.438;16.744;2023-01-19T13:14:45;31.27;;;16.85;;
76935;SDS011;65881;52.438;16.744;2023-01-19T13:17:30;29.98;;;19.20;;
76935;SDS011;65881;52.438;16.744;2023-01-19T13:20:42;29.95;;;18.48;;
76935;SDS011;65881;52.438;16.744;2023-01-19T13:25:45;31.52;;;18.55;;
76935;SDS011;65881;52.438;16.744;2023-01-19T13:28:16;32.90;;;19.02;;
76935;SDS011;65881;52.438;16.744;2023-01-19T13:30:52;39.42;;;20.80;;
76935;SDS011;65881;52.438;16.744;2023-01-19T13:33:53;32.55;;;19.13;;
76935;SDS011;65881;52.438;16.744;2023-01-19T13:36:27;34.22;;;19.30;;
76935;SDS011;65881;52.438;16.744;2023-01-19T13:39:00;36.50;;;20.27;;
76935;SDS011;65881;52.438;16.744;2023-01-19T13:41:30;31.17;;;17.88;;
76935;SDS011;65881;52.438;16.744;2023-01-19T13:47:12;40.97;;;19.63;;
76935;SDS011;65881;52.438;16.744;2023-01-19T13:49:44;41.70;;;23.17;;
76935;SDS011;65881;52.438;16.744;2023-01-19T13:52:15;40.92;;;21.67;;
76935;SDS011;65881;52.438;16.744;2023-01-19T13:54:57;44.85;;;22.70;;
76935;SDS011;65881;52.438;16.744;2023-01-19T13:57:44;39.65;;;22.52;;
76935;SDS011;65881;52.438;16.744;2023-01-19T14:02:39;41.20;;;22.02;;
76935;SDS011;65881;52.438;16.744;2023-01-19T14:05:13;44.75;;;25.73;;
76935;SDS011;65881;52.438;16.744;2023-01-19T14:07:39;37.50;;;20.67;;
76935;SDS011;65881;52.438;16.744;2023-01-19T14:10:09;44.22;;;23.35;;
76935;SDS011;65881;52.438;16.744;2023-01-19T14:12:38;37.00;;;22.35;;
76935;SDS011;65881;52.438;16.744;2023-01-19T14:15:04;44.63;;;24.08;;
76935;SDS011;65881;52.438;16.744;2023-01-19T14:17:37;40.42;;;20.80;;
76935;SDS011;65881;52.438;16.744;2023-01-19T14:20:02;40.10;;;21.48;;
76935;SDS011;65881;52.438;16.744;2023-01-19T14:22:37;43.65;;;24.30;;
76935;SDS011;65881;52.438;16.744;2023-01-19T14:42:44;37.72;;;21.38;;
76935;SDS011;65881;52.438;16.744;2023-01-19T14:45:18;42.22;;;23.25;;
76935;SDS011;65881;52.438;16.744;2023-01-19T14:47:59;40.22;;;22.45;;
76935;SDS011;65881;52.438;16.744;2023-01-19T14:50:39;38.88;;;22.77;;
76935;SDS011;65881;52.438;16.744;2023-01-19T14:53:22;40.00;;;21.48;;
76935;SDS011;65881;52.438;16.744;2023-01-19T14:58:49;40.83;;;24.48;;
76935;SDS011;65881;52.438;16.744;2023-01-19T15:01:15;48.17;;;25.13;;
76935;SDS011;65881;52.438;16.744;2023-01-19T15:03:41;51.30;;;26.88;;
76935;SDS011;65881;52.438;16.744;2023-01-19T15:06:09;61.67;;;32.35;;
76935;SDS011;65881;52.438;16.744;2023-01-19T15:08:40;67.20;;;32.97;;
76935;SDS011;65881;52.438;16.744;2023-01-19T15:13:59;52.08;;;27.02;;
76935;SDS011;65881;52.438;16.744;2023-01-19T15:16:25;50.63;;;26.60;;
76935;SDS011;65881;52.438;16.744;2023-01-19T15:21:27;48.80;;;27.20;;
76935;SDS011;65881;52.438;16.744;2023-01-19T15:23:53;48.60;;;26.15;;
76935;SDS011;65881;52.438;16.744;2023-01-19T15:26:22;53.22;;;29.92;;
76935;SDS011;65881;52.438;16.744;2023-01-19T15:28:49;54.55;;;29.20;;
76935;SDS011;65881;52.438;16.744;2023-01-19T15:31:22;57.92;;;30.63;;
76935;SDS011;65881;52.438;16.744;2023-01-19T15:33:56;56.03;;;28.92;;
76935;SDS011;65881;52.438;16.744;2023-01-19T15:36:21;51.22;;;26.90;;
76935;SDS011;65881;52.438;16.744;2023-01-19T15:38:57;49.83;;;27.00;;
76935;SDS011;65881;52.438;16.744;2023-01-19T15:41:29;54.95;;;28.15;;
76935;SDS011;65881;52.438;16.744;2023-01-19T15:46:52;59.22;;;31.10;;
76935;SDS011;65881;52.438;16.744;2023-01-19T15:49:17;46.25;;;25.05;;
76935;SDS011;65881;52.438;16.744;2023-01-19T15:52:04;49.05;;;26.23;;
76935;SDS011;65881;52.438;16.744;2023-01-19T15:57:21;54.67;;;26.63;;
76935;SDS011;65881;52.438;16.744;2023-01-19T16:06:52;53.85;;;27.95;;
76935;SDS011;65881;52.438;16.744;2023-01-19T16:09:17;49.50;;;27.02;;
76935;SDS011;65881;52.438;16.744;2023-01-19T16:11:44;45.78;;;23.90;;
76935;SDS011;65881;52.438;16.744;2023-01-19T16:14:10;50.75;;;27.10;;
76935;SDS011;65881;52.438;16.744;2023-01-19T16:16:48;53.15;;;28.25;;
76935;SDS011;65881;52.438;16.744;2023-01-19T16:19:14;46.83;;;26.25;;
76935;SDS011;65881;52.438;16.744;2023-01-19T16:21:40;47.25;;;26.30;;
76935;SDS011;65881;52.438;16.744;2023-01-19T16:24:30;50.45;;;27.63;;
76935;SDS011;65881;52.438;16.744;2023-01-19T16:26:56;46.50;;;27.17;;
76935;SDS011;65881;52.438;16.744;2023-01-19T16:29:40;56.90;;;28.10;;
76935;SDS011;65881;52.438;16.744;2023-01-19T16:35:03;50.72;;;27.80;;
76935;SDS011;65881;52.438;16.744;2023-01-19T16:37:42;49.92;;;24.92;;
76935;SDS011;65881;52.438;16.744;2023-01-19T16:42:49;50.72;;;27.30;;
76935;SDS011;65881;52.438;16.744;2023-01-19T16:45:18;65.10;;;36.08;;
76935;SDS011;65881;52.438;16.744;2023-01-19T16:53:37;67.35;;;39.15;;
76935;SDS011;65881;52.438;16.744;2023-01-19T16:58:57;54.33;;;26.77;;
76935;SDS011;65881;52.438;16.744;2023-01-19T17:01:24;54.53;;;30.17;;
76935;SDS011;65881;52.438;16.744;2023-01-19T17:15:44;67.70;;;37.72;;
76935;SDS011;65881;52.438;16.744;2023-01-19T17:18:22;64.88;;;35.33;;
76935;SDS011;65881;52.438;16.744;2023-01-19T17:20:47;68.97;;;37.75;;
76935;SDS011;65881;52.438;16.744;2023-01-19T17:23:13;75.22;;;39.53;;
76935;SDS011;65881;52.438;16.744;2023-01-19T17:25:39;76.63;;;38.38;;
76935;SDS011;65881;52.438;16.744;2023-01-19T17:28:05;73.57;;;38.45;;
76935;SDS011;65881;52.438;16.744;2023-01-19T17:30:30;63.58;;;35.53;;
76935;SDS011;65881;52.438;16.744;2023-01-19T17:32:56;73.82;;;36.65;;
76935;SDS011;65881;52.438;16.744;2023-01-19T17:35:23;67.25;;;34.42;;
76935;SDS011;65881;52.438;16.744;2023-01-19T17:37:51;66.40;;;37.55;;
76935;SDS011;65881;52.438;16.744;2023-01-19T17:40:20;64.63;;;32.63;;
76935;SDS011;65881;52.438;16.744;2023-01-19T17:42:58;61.40;;;33.92;;
76935;SDS011;65881;52.438;16.744;2023-01-19T17:45:30;66.40;;;34.05;;
76935;SDS011;65881;52.438;16.744;2023-01-19T17:48:10;68.20;;;34.67;;
76935;SDS011;65881;52.438;16.744;2023-01-19T17:50:43;62.72;;;34.70;;
76935;SDS011;65881;52.438;16.744;2023-01-19T17:53:21;59.08;;;28.58;;
76935;SDS011;65881;52.438;16.744;2023-01-19T17:55:46;62.22;;;31.30;;
76935;SDS011;65881;52.438;16.744;2023-01-19T18:01:16;52.28;;;28.75;;
76935;SDS011;65881;52.438;16.744;2023-01-19T18:04:02;72.50;;;38.30;;
76935;SDS011;65881;52.438;16.744;2023-01-19T18:06:55;62.90;;;35.92;;
76935;SDS011;65881;52.438;16.744;2023-01-19T18:09:25;84.97;;;45.05;;
76935;SDS011;65881;52.438;16.744;2023-01-19T18:14:26;81.53;;;44.60;;
76935;SDS011;65881;52.438;16.744;2023-01-19T18:16:51;68.35;;;38.28;;
76935;SDS011;65881;52.438;16.744;2023-01-19T18:19:17;72.70;;;37.30;;
76935;SDS011;65881;52.438;16.744;2023-01-19T18:21:46;65.47;;;42.45;;